Tuscaloosa Regional Airport
KTCL : rendu visible

Aérodrome :











RETROUVEZ-NOUS SUR...

 
LOGIN :

S'inscrire | Disclaimer

   EN    FR    IT 

 









Légende :    VFR   VFR Marginal   IFR   IFR Intensif   IFR Très Intensif
Visi : 
Plafond : 
>= 8 km
>= 3000ft
5 à 8 km
1000 à 3000 ft
1500m à 5 km
500 à 1000 ft
800 à 1500m
200 à 500 ft
< 800m
< 200 ft
Symboles :   Orages  Brouillard  Fortes neiges  Fortes précipitations  Vent > 20 kt






- Altitude de l'aérodrome : 170 ft
- Code IATA : TCL


KTCL - Tuscaloosa Regional

DERNIER METAR :
  • 081753Z 23007KT 7SM FEW018 FEW090 27/22 A2986 RMK AO2 SLP110 T02670217 10272 20189 58018

METARs EXPIRÉS :
  • 081741Z 20006KT 6SM HZ FEW016 SCT024 SCT036 27/22 A2986 RMK AO2 T02670222
  • 081653Z 22004KT 6SM HZ SCT013 BKN019 OVC065 26/22 A2989 RMK AO2 SLP119 T02560222
  • 081626Z 18003KT 6SM HZ FEW012 SCT021 BKN030 25/22 A2990 RMK AO2 T02500217
  • 081553Z 22004KT 5SM HZ SCT008 OVC014 24/22 A2991 RMK AO2 SLP127 T02440217
  • 081512Z 23003KT 4SM BR OVC005 23/22 A2991 RMK AO2 T02330217

TAF KTCL
Valide du 08 à 18h jusqu'au 09 à 18h UTC


081720Z 0818/0918 24006KT P6SM VCTS SCT012 BKN020CB
TEMPO 0819/0821 4SM TSRA BR OVC015CB
FM082200 VRB03KT P6SM VCSH BKN035
FM090000 VRB03KT P6SM SCT100
FM090600 VRB04KT P6SM BKN050
PROB30 0907/0910 4SM TSRA BR OVC025CB
FM091200 32006KT 6SM BR BKN025
FM091500 35008KT P6SM SCT120



MET'MAP, la Météo Aéronautique d'un coup d'oeil ! - Copyright ORBIFLY Décembre 2007 - Disclaimer

ORBIFLY MET'MAP TEAM :

Programmation & Développement : Alexandra Zaïnal
Sur une idée originale de : Baudouin d'Aumeries
Assistance à la programmation : Marc-Olivier Méhu
Soutien technique & logistique : Manuel Goepfert

Contact : metmap@orbifly.com




SOURCES & CREDITS :

   NOAA       Earth
Advisory